createdAt,value
2023-03-05T00:00:21.830Z,37.70
2023-03-05T00:01:21.837Z,39.50
2023-03-05T00:02:21.833Z,41.60
2023-03-05T00:03:21.829Z,38.40
2023-03-05T00:04:21.855Z,38.00
2023-03-05T00:05:21.762Z,39.80
2023-03-05T00:06:21.779Z,40.10
2023-03-05T00:07:21.743Z,38.60
2023-03-05T00:08:21.728Z,37.40
2023-03-05T00:09:21.707Z,39.40
2023-03-05T00:10:21.699Z,39.70
2023-03-05T00:11:21.747Z,37.80
2023-03-05T00:12:21.691Z,40.00
2023-03-05T00:13:21.664Z,37.60
2023-03-05T00:14:21.666Z,39.10
2023-03-05T00:15:21.696Z,42.10
2023-03-05T00:16:21.773Z,38.10
2023-03-05T00:17:21.638Z,38.80
2023-03-05T00:18:21.594Z,43.30
2023-03-05T00:19:21.578Z,40.50
2023-03-05T00:20:21.586Z,42.90
2023-03-05T00:21:21.557Z,40.70
2023-03-05T00:22:21.564Z,41.30
2023-03-05T00:23:21.533Z,45.00
2023-03-05T00:24:21.512Z,42.90
2023-03-05T00:25:21.533Z,38.50
2023-03-05T00:26:21.488Z,42.00
2023-03-05T00:27:21.481Z,39.50
2023-03-05T00:28:21.466Z,39.80
2023-03-05T00:29:21.460Z,40.40
2023-03-05T00:30:21.440Z,42.50
2023-03-05T00:31:21.615Z,42.50
2023-03-05T00:32:22.247Z,40.10
2023-03-05T00:33:21.401Z,39.20
2023-03-05T00:34:21.394Z,40.80
2023-03-05T00:35:21.390Z,37.90
2023-03-05T00:36:21.386Z,39.20
2023-03-05T00:37:21.347Z,38.20
2023-03-05T00:38:21.345Z,39.50
2023-03-05T00:39:21.342Z,40.60
2023-03-05T00:40:21.441Z,41.20
2023-03-05T00:41:21.322Z,39.60
2023-03-05T00:42:21.294Z,39.40
2023-03-05T00:43:21.292Z,38.80
2023-03-05T00:44:21.256Z,42.00
2023-03-05T00:45:21.248Z,39.80
2023-03-05T00:46:21.322Z,40.60
2023-03-05T00:47:21.234Z,41.80
2023-03-05T00:48:21.227Z,39.20
2023-03-05T00:49:21.199Z,42.40
2023-03-05T00:50:21.210Z,37.20
2023-03-05T00:51:21.187Z,40.80
2023-03-05T00:52:21.156Z,40.70
2023-03-05T00:53:21.148Z,39.50
2023-03-05T00:54:21.131Z,39.60
2023-03-05T00:55:21.125Z,39.40
2023-03-05T00:56:21.107Z,42.10
2023-03-05T00:57:21.133Z,40.60
2023-03-05T00:58:21.103Z,42.10
2023-03-05T00:59:21.072Z,41.00
2023-03-05T01:00:21.051Z,41.10
2023-03-05T01:01:21.094Z,39.10
2023-03-05T01:02:21.035Z,40.70
2023-03-05T01:03:21.077Z,40.30
2023-03-05T01:04:20.991Z,42.40
2023-03-05T01:05:21.042Z,37.80
2023-03-05T01:06:20.964Z,39.40
2023-03-05T01:07:20.970Z,40.90
2023-03-05T01:08:20.953Z,39.50
2023-03-05T01:09:20.936Z,38.10
2023-03-05T01:10:20.914Z,41.20
2023-03-05T01:11:20.902Z,42.00
2023-03-05T01:12:20.893Z,38.80
2023-03-05T01:13:20.888Z,39.00
2023-03-05T01:14:20.860Z,43.90
2023-03-05T01:15:20.846Z,40.70
2023-03-05T01:16:20.875Z,39.60
2023-03-05T01:17:20.814Z,36.40
2023-03-05T01:18:20.797Z,39.50
2023-03-05T01:19:21.028Z,36.60
2023-03-05T01:20:20.778Z,39.50
2023-03-05T01:21:20.775Z,36.50
2023-03-05T01:22:20.745Z,38.00
2023-03-05T01:23:20.742Z,38.80
2023-03-05T01:24:20.738Z,38.40
2023-03-05T01:25:20.720Z,38.40
2023-03-05T01:26:20.729Z,37.90
2023-03-05T01:27:20.703Z,40.20
2023-03-05T01:28:20.668Z,38.90
2023-03-05T01:29:20.712Z,38.60
2023-03-05T01:30:20.642Z,44.40
2023-03-05T01:31:20.675Z,38.00
2023-03-05T01:32:20.656Z,38.80
2023-03-05T01:33:20.628Z,37.40
2023-03-05T01:34:20.604Z,36.10
2023-03-05T01:35:20.661Z,40.00
2023-03-05T01:36:20.560Z,37.20
2023-03-05T01:37:20.569Z,39.90
2023-03-05T01:38:20.558Z,36.80
2023-03-05T01:39:20.549Z,37.30
2023-03-05T01:40:20.532Z,39.00
2023-03-05T01:41:20.515Z,37.70
2023-03-05T01:42:20.490Z,36.30
2023-03-05T01:43:20.482Z,38.40
2023-03-05T01:44:20.469Z,34.80
2023-03-05T01:45:20.451Z,38.40
2023-03-05T01:46:20.442Z,37.70
2023-03-05T01:47:20.440Z,36.40
2023-03-05T01:48:20.413Z,39.50
2023-03-05T01:49:20.428Z,36.80
2023-03-05T01:50:20.399Z,38.00
2023-03-05T01:51:20.395Z,38.40
2023-03-05T01:52:20.367Z,37.50
2023-03-05T01:53:20.368Z,37.20
2023-03-05T01:54:20.369Z,38.20
2023-03-05T01:55:20.330Z,37.30
2023-03-05T01:56:20.310Z,36.60
2023-03-05T01:57:20.314Z,40.80
2023-03-05T01:58:20.283Z,38.00
2023-03-05T01:59:20.289Z,35.30
2023-03-05T02:00:20.256Z,39.60
2023-03-05T02:01:20.326Z,39.90
2023-03-05T02:02:20.230Z,41.00
2023-03-05T02:03:20.251Z,36.00
2023-03-05T02:04:20.243Z,39.20
2023-03-05T02:05:20.192Z,37.50
2023-03-05T02:06:20.195Z,38.90
2023-03-05T02:07:20.198Z,38.50
2023-03-05T02:08:20.151Z,36.80
2023-03-05T02:09:20.148Z,40.30
2023-03-05T02:10:20.146Z,37.50
2023-03-05T02:11:20.132Z,38.40
2023-03-05T02:12:20.133Z,39.00
2023-03-05T02:13:20.108Z,38.20
2023-03-05T02:14:20.082Z,35.80
2023-03-05T02:15:20.090Z,38.10
2023-03-05T02:16:20.088Z,39.30
2023-03-05T02:17:20.070Z,36.80
2023-03-05T02:18:20.034Z,39.70
2023-03-05T02:19:20.043Z,40.10
2023-03-05T02:20:20.016Z,40.10
2023-03-05T02:21:20.002Z,36.90
2023-03-05T02:22:20.003Z,36.80
2023-03-05T02:23:19.989Z,35.10
2023-03-05T02:24:19.969Z,39.80
2023-03-05T02:25:19.986Z,40.10
2023-03-05T02:26:19.931Z,38.90
2023-03-05T02:27:19.940Z,39.80
2023-03-05T02:28:19.912Z,39.10
2023-03-05T02:29:19.915Z,37.00
2023-03-05T02:30:19.892Z,37.50
2023-03-05T02:31:19.966Z,36.70
2023-03-05T02:32:19.975Z,36.30
2023-03-05T02:33:19.842Z,37.60
2023-03-05T02:34:19.842Z,36.70
2023-03-05T02:35:19.905Z,40.20
2023-03-05T02:36:19.803Z,38.30
2023-03-05T02:37:19.797Z,34.90
2023-03-05T02:38:19.781Z,38.10
2023-03-05T02:39:19.781Z,38.40
2023-03-05T02:40:19.757Z,36.40
2023-03-05T02:41:19.758Z,37.70
2023-03-05T02:42:19.733Z,38.20
2023-03-05T02:43:19.718Z,37.90
2023-03-05T02:44:19.710Z,39.90
2023-03-05T02:45:19.705Z,37.40
2023-03-05T02:46:19.691Z,40.00
2023-03-05T02:47:19.679Z,35.80
2023-03-05T02:48:19.680Z,37.10
2023-03-05T02:49:19.646Z,35.90
2023-03-05T02:50:19.622Z,38.70
2023-03-05T02:51:19.646Z,41.10
2023-03-05T02:52:19.594Z,39.50
2023-03-05T02:53:19.585Z,37.50
2023-03-05T02:54:19.568Z,40.40
2023-03-05T02:55:19.564Z,37.30
2023-03-05T02:56:19.570Z,35.70
2023-03-05T02:57:19.534Z,37.40
2023-03-05T02:58:19.528Z,36.20
2023-03-05T02:59:19.514Z,37.80
2023-03-05T03:00:19.502Z,40.20
2023-03-05T03:01:19.544Z,39.40
2023-03-05T03:02:19.472Z,39.40
2023-03-05T03:03:19.550Z,39.90
2023-03-05T03:04:19.456Z,38.40
2023-03-05T03:05:19.457Z,41.10
2023-03-05T03:06:19.459Z,42.50
2023-03-05T03:07:19.405Z,40.10
2023-03-05T03:08:19.406Z,40.80
2023-03-05T03:09:19.378Z,41.90
2023-03-05T03:10:19.377Z,38.10
2023-03-05T03:11:19.379Z,40.20
2023-03-05T03:12:19.350Z,41.50
2023-03-05T03:13:19.339Z,41.10
2023-03-05T03:14:19.338Z,42.60
2023-03-05T03:15:20.108Z,40.90
2023-03-05T03:16:19.323Z,39.80
2023-03-05T03:17:19.313Z,40.50
2023-03-05T03:18:19.275Z,43.90
2023-03-05T03:19:20.097Z,38.60
2023-03-05T03:20:19.252Z,39.80
2023-03-05T03:21:19.256Z,41.50
2023-03-05T03:22:19.225Z,41.80
2023-03-05T03:23:19.200Z,42.60
2023-03-05T03:24:19.195Z,40.80
2023-03-05T03:25:19.207Z,39.50
2023-03-05T03:26:19.167Z,43.20
2023-03-05T03:27:19.167Z,38.80
2023-03-05T03:28:19.163Z,40.10
2023-03-05T03:29:19.160Z,41.90
2023-03-05T03:30:19.142Z,43.30
2023-03-05T03:31:19.121Z,42.10
2023-03-05T03:32:19.149Z,43.40
2023-03-05T03:33:19.085Z,38.90
2023-03-05T03:34:19.076Z,39.60
2023-03-05T03:35:19.077Z,39.00
2023-03-05T03:36:19.037Z,44.40
2023-03-05T03:37:19.039Z,42.90
2023-03-05T03:38:19.024Z,44.30
2023-03-05T03:39:19.020Z,43.60
2023-03-05T03:40:18.995Z,42.00
2023-03-05T03:41:19.004Z,44.20
2023-03-05T03:42:18.977Z,41.80
2023-03-05T03:43:18.953Z,50.30
2023-03-05T03:44:18.935Z,61.00
2023-03-05T03:45:18.927Z,42.00
2023-03-05T03:46:18.996Z,42.60
2023-03-05T03:47:18.910Z,42.50
2023-03-05T03:48:18.894Z,42.10
2023-03-05T03:49:18.878Z,41.40
2023-03-05T03:50:18.868Z,43.00
2023-03-05T03:51:18.861Z,51.60
2023-03-05T03:52:18.855Z,43.40
2023-03-05T03:53:18.826Z,41.40
2023-03-05T03:54:18.853Z,44.30
2023-03-05T03:55:18.801Z,41.40
2023-03-05T03:56:18.801Z,44.60
2023-03-05T03:57:18.813Z,43.20
2023-03-05T03:58:18.783Z,44.20
2023-03-05T03:59:18.762Z,46.60
2023-03-05T04:00:18.744Z,42.40
2023-03-05T04:01:18.734Z,42.70
2023-03-05T04:02:18.836Z,42.20
2023-03-05T04:03:18.713Z,40.70
2023-03-05T04:04:18.746Z,46.00
2023-03-05T04:05:18.698Z,45.60
2023-03-05T04:06:18.661Z,41.70
2023-03-05T04:07:18.654Z,42.00
2023-03-05T04:08:18.661Z,43.80
2023-03-05T04:09:18.656Z,42.10
2023-03-05T04:10:18.620Z,45.10
2023-03-05T04:11:18.616Z,44.30
2023-03-05T04:12:18.593Z,44.10
2023-03-05T04:13:18.591Z,41.90
2023-03-05T04:14:18.564Z,43.20
2023-03-05T04:15:18.570Z,44.10
2023-03-05T04:16:18.589Z,42.20
2023-03-05T04:17:18.529Z,43.50
2023-03-05T04:18:18.546Z,44.40
2023-03-05T04:19:18.499Z,45.40
2023-03-05T04:20:18.490Z,43.50
2023-03-05T04:21:18.495Z,43.70
2023-03-05T04:22:18.486Z,42.40
2023-03-05T04:23:18.501Z,45.10
2023-03-05T04:24:18.452Z,41.50
2023-03-05T04:25:18.452Z,44.30
2023-03-05T04:26:18.404Z,43.70
2023-03-05T04:27:18.406Z,43.00
2023-03-05T04:28:18.391Z,41.20
2023-03-05T04:29:18.398Z,41.90
2023-03-05T04:30:18.371Z,42.30
2023-03-05T04:31:18.438Z,44.90
2023-03-05T04:32:18.352Z,42.30
2023-03-05T04:33:18.320Z,44.10
2023-03-05T04:34:18.316Z,45.40
2023-03-05T04:35:18.338Z,43.40
2023-03-05T04:36:18.272Z,42.80
2023-03-05T04:37:18.267Z,45.00
2023-03-05T04:38:18.248Z,42.50
2023-03-05T04:39:18.253Z,42.20
2023-03-05T04:40:18.268Z,42.50
2023-03-05T04:41:18.243Z,43.40
2023-03-05T04:42:18.200Z,44.20
2023-03-05T04:43:18.206Z,41.80
2023-03-05T04:44:18.190Z,42.40
2023-03-05T04:45:18.180Z,42.50
2023-03-05T04:46:18.169Z,41.70
2023-03-05T04:47:18.154Z,40.70
2023-03-05T04:48:18.119Z,46.60
2023-03-05T04:49:18.138Z,44.20
2023-03-05T04:50:18.097Z,43.50
2023-03-05T04:51:18.080Z,42.60
2023-03-05T04:52:18.068Z,42.00
2023-03-05T04:53:18.056Z,43.50
2023-03-05T04:54:18.051Z,47.30
2023-03-05T04:55:18.036Z,42.00
2023-03-05T04:56:18.022Z,45.50
2023-03-05T04:57:18.009Z,43.70
2023-03-05T04:58:18.008Z,41.00
2023-03-05T04:59:18.004Z,44.40
2023-03-05T05:00:17.965Z,45.00
2023-03-05T05:01:18.031Z,44.10
2023-03-05T05:02:17.947Z,45.10
2023-03-05T05:03:17.990Z,44.80
2023-03-05T05:04:17.916Z,46.30
2023-03-05T05:05:17.909Z,45.30
2023-03-05T05:06:17.899Z,43.60
2023-03-05T05:07:17.873Z,43.60
2023-03-05T05:08:17.877Z,46.80
2023-03-05T05:09:17.866Z,45.10
2023-03-05T05:10:17.868Z,42.10
2023-03-05T05:11:17.837Z,42.60
2023-03-05T05:12:17.820Z,47.10
2023-03-05T05:13:17.834Z,45.50
2023-03-05T05:14:17.797Z,47.70
2023-03-05T05:15:17.789Z,44.10
2023-03-05T05:16:17.850Z,45.00
2023-03-05T05:17:17.761Z,48.20
2023-03-05T05:18:17.738Z,44.00
2023-03-05T05:19:17.783Z,45.00
2023-03-05T05:20:17.728Z,46.20
2023-03-05T05:21:17.711Z,45.00
2023-03-05T05:22:17.709Z,47.60
2023-03-05T05:23:17.686Z,44.60
2023-03-05T05:24:17.682Z,45.70
2023-03-05T05:25:17.671Z,47.00
2023-03-05T05:26:17.664Z,44.80
2023-03-05T05:27:17.628Z,45.10
2023-03-05T05:28:17.612Z,46.80
2023-03-05T05:29:17.612Z,46.00
2023-03-05T05:30:17.604Z,44.10
2023-03-05T05:31:17.626Z,51.40
2023-03-05T05:32:17.595Z,45.30
2023-03-05T05:33:17.571Z,49.30
2023-03-05T05:34:17.533Z,45.70
2023-03-05T05:35:17.691Z,43.40
2023-03-05T05:36:17.524Z,49.80
2023-03-05T05:37:17.507Z,44.60
2023-03-05T05:38:17.493Z,47.20
2023-03-05T05:39:19.559Z,44.00
2023-03-05T05:40:17.486Z,45.20
2023-03-05T05:41:17.450Z,49.30
2023-03-05T05:42:17.444Z,48.00
2023-03-05T05:43:17.426Z,48.20
2023-03-05T05:44:17.426Z,46.10
2023-03-05T05:45:17.441Z,44.10
2023-03-05T05:46:17.543Z,44.40
2023-03-05T05:47:17.388Z,45.50
2023-03-05T05:48:17.404Z,45.70
2023-03-05T05:49:17.359Z,44.80
2023-03-05T05:50:17.347Z,44.90
2023-03-05T05:51:17.335Z,45.70
2023-03-05T05:52:17.316Z,46.90
2023-03-05T05:53:17.312Z,45.80
2023-03-05T05:54:17.294Z,47.40
2023-03-05T05:55:17.286Z,48.60
2023-03-05T05:56:17.303Z,42.60
2023-03-05T05:57:17.266Z,46.00
2023-03-05T05:58:17.232Z,49.20
2023-03-05T05:59:17.229Z,41.30
2023-03-05T06:00:17.236Z,45.80
2023-03-05T06:01:17.198Z,44.30
2023-03-05T06:02:17.222Z,45.30
2023-03-05T06:03:17.242Z,44.40
2023-03-05T06:04:17.157Z,44.90
2023-03-05T06:05:17.143Z,45.40
2023-03-05T06:06:17.149Z,45.80
2023-03-05T06:07:17.148Z,44.40
2023-03-05T06:08:17.136Z,45.40
2023-03-05T06:09:17.096Z,48.50
2023-03-05T06:10:17.079Z,42.50
2023-03-05T06:11:19.259Z,45.30
2023-03-05T06:12:17.134Z,45.70
2023-03-05T06:13:17.061Z,46.20
2023-03-05T06:14:17.053Z,43.50
2023-03-05T06:15:17.023Z,46.80
2023-03-05T06:16:17.072Z,46.10
2023-03-05T06:17:28.637Z,48.40
2023-03-05T06:18:16.989Z,47.00
2023-03-05T06:19:16.969Z,46.20
2023-03-05T06:20:16.972Z,46.20
2023-03-05T06:21:16.960Z,43.30
2023-03-05T06:22:16.937Z,42.70
2023-03-05T06:23:16.926Z,45.50
2023-03-05T06:24:16.922Z,45.70
2023-03-05T06:25:16.928Z,46.60
2023-03-05T06:26:16.881Z,44.00
2023-03-05T06:27:16.869Z,45.40
2023-03-05T06:28:16.876Z,45.30
2023-03-05T06:29:16.837Z,44.20
2023-03-05T06:30:16.839Z,45.50
2023-03-05T06:31:16.818Z,46.60
2023-03-05T06:32:16.845Z,42.90
2023-03-05T06:33:16.777Z,44.30
2023-03-05T06:34:16.822Z,46.20
2023-03-05T06:35:16.979Z,43.70
2023-03-05T06:36:16.774Z,47.70
2023-03-05T06:37:16.798Z,44.30
2023-03-05T06:38:16.727Z,44.60
2023-03-05T06:39:16.707Z,43.80
2023-03-05T06:40:16.700Z,45.20
2023-03-05T06:41:16.688Z,48.40
2023-03-05T06:42:16.680Z,43.80
2023-03-05T06:43:16.654Z,42.40
2023-03-05T06:44:16.663Z,46.90
2023-03-05T06:45:16.627Z,44.90
2023-03-05T06:46:16.741Z,45.50
2023-03-05T06:47:16.656Z,44.80
2023-03-05T06:48:16.585Z,41.90
2023-03-05T06:49:16.575Z,43.10
2023-03-05T06:50:16.566Z,43.70
2023-03-05T06:51:16.569Z,45.90
2023-03-05T06:52:16.559Z,47.60
2023-03-05T06:53:16.532Z,45.60
2023-03-05T06:54:16.533Z,42.10
2023-03-05T06:55:16.496Z,43.00
2023-03-05T06:56:16.504Z,43.00
2023-03-05T06:57:16.474Z,44.10
2023-03-05T06:58:16.476Z,44.30
2023-03-05T06:59:16.470Z,45.70
2023-03-05T07:00:16.471Z,42.60
2023-03-05T07:01:16.490Z,40.00
2023-03-05T07:02:16.441Z,43.60
2023-03-05T07:03:16.409Z,42.70
2023-03-05T07:04:16.424Z,42.40
2023-03-05T07:05:16.371Z,41.60
2023-03-05T07:06:16.379Z,41.00
2023-03-05T07:07:16.342Z,41.80
2023-03-05T07:08:16.372Z,43.50
2023-03-05T07:09:16.325Z,42.60
2023-03-05T07:10:16.309Z,41.70
2023-03-05T07:11:16.323Z,42.40
2023-03-05T07:12:16.299Z,39.90
2023-03-05T07:13:16.293Z,43.00
2023-03-05T07:14:16.274Z,41.30
2023-03-05T07:15:16.250Z,39.40
2023-03-05T07:16:16.272Z,39.90
2023-03-05T07:17:16.212Z,38.50
2023-03-05T07:18:16.208Z,36.80
2023-03-05T07:19:16.200Z,39.60
2023-03-05T07:20:16.196Z,39.80
2023-03-05T07:21:16.174Z,42.60
2023-03-05T07:22:16.152Z,41.30
2023-03-05T07:23:16.140Z,39.10
2023-03-05T07:24:16.147Z,39.60
2023-03-05T07:25:16.121Z,38.90
2023-03-05T07:26:16.129Z,42.10
2023-03-05T07:27:16.096Z,39.00
2023-03-05T07:28:16.101Z,39.00
2023-03-05T07:29:16.153Z,40.70
2023-03-05T07:30:16.095Z,39.50
2023-03-05T07:31:16.135Z,37.30
2023-03-05T07:32:16.066Z,38.00
2023-03-05T07:33:16.016Z,39.00
2023-03-05T07:34:16.012Z,41.70
2023-03-05T07:35:16.022Z,36.60
2023-03-05T07:36:15.986Z,40.40
2023-03-05T07:37:15.977Z,39.60
2023-03-05T07:38:15.963Z,38.30
2023-03-05T07:39:15.971Z,37.60
2023-03-05T07:40:15.932Z,40.90
2023-03-05T07:41:15.918Z,36.30
2023-03-05T07:42:15.958Z,40.60
2023-03-05T07:43:15.905Z,41.50
2023-03-05T07:44:15.931Z,38.80
2023-03-05T07:45:15.862Z,37.30
2023-03-05T07:46:15.871Z,39.80
2023-03-05T07:47:15.853Z,35.40
2023-03-05T07:48:15.833Z,34.90
2023-03-05T07:49:15.831Z,39.80
2023-03-05T07:50:15.830Z,38.20
2023-03-05T07:51:15.819Z,37.60
2023-03-05T07:52:15.797Z,35.70
2023-03-05T07:53:15.776Z,37.10
2023-03-05T07:54:15.760Z,34.90
2023-03-05T07:55:15.744Z,33.60
2023-03-05T07:56:15.725Z,37.20
2023-03-05T07:57:15.730Z,43.00
2023-03-05T07:58:15.708Z,43.00
2023-03-05T07:59:15.695Z,41.70
2023-03-05T08:00:15.679Z,41.00
2023-03-05T08:01:15.679Z,38.40
2023-03-05T08:02:15.681Z,36.10
2023-03-05T08:03:15.633Z,36.90
2023-03-05T08:04:15.693Z,36.50
2023-03-05T08:05:15.627Z,37.10
2023-03-05T08:06:15.607Z,39.10
2023-03-05T08:07:15.613Z,37.40
2023-03-05T08:08:15.578Z,41.30
2023-03-05T08:09:15.589Z,34.40
2023-03-05T08:10:15.553Z,37.90
2023-03-05T08:11:15.532Z,40.60
2023-03-05T08:12:15.525Z,36.70
2023-03-05T08:13:15.597Z,38.00
2023-03-05T08:14:15.501Z,35.40
2023-03-05T08:15:15.504Z,34.00
2023-03-05T08:16:15.525Z,37.90
2023-03-05T08:17:15.453Z,39.50
2023-03-05T08:18:15.448Z,38.40
2023-03-05T08:19:15.453Z,39.70
2023-03-05T08:20:15.452Z,34.00
2023-03-05T08:21:15.457Z,34.20
2023-03-05T08:22:15.393Z,38.10
2023-03-05T08:23:15.481Z,38.00
2023-03-05T08:24:15.397Z,38.20
2023-03-05T08:25:15.371Z,37.40
2023-03-05T08:26:15.348Z,44.50
2023-03-05T08:27:15.328Z,38.20
2023-03-05T08:28:15.327Z,39.50
2023-03-05T08:29:15.308Z,39.50
2023-03-05T08:30:15.353Z,37.70
2023-03-05T08:31:15.302Z,41.10
2023-03-05T08:32:15.298Z,38.10
2023-03-05T08:33:15.338Z,43.10
2023-03-05T08:34:15.272Z,39.00
2023-03-05T08:35:15.231Z,38.60
2023-03-05T08:36:15.335Z,36.90
2023-03-05T08:37:15.277Z,35.90
2023-03-05T08:38:15.236Z,40.10
2023-03-05T08:39:15.183Z,39.00
2023-03-05T08:40:15.241Z,39.40
2023-03-05T08:41:15.268Z,37.90
2023-03-05T08:42:15.142Z,40.70
2023-03-05T08:43:16.389Z,39.30
2023-03-05T08:44:15.207Z,39.90
2023-03-05T08:45:16.129Z,36.00
2023-03-05T08:46:15.547Z,37.60
2023-03-05T08:47:15.192Z,39.30
2023-03-05T08:48:15.114Z,40.90
2023-03-05T08:49:16.402Z,39.30
2023-03-05T08:50:15.066Z,37.90
2023-03-05T08:51:15.418Z,38.10
2023-03-05T08:52:15.009Z,38.80
2023-03-05T08:53:15.102Z,36.40
2023-03-05T08:54:15.046Z,39.60
2023-03-05T08:55:15.000Z,36.70
2023-03-05T08:56:14.999Z,39.10
2023-03-05T08:57:14.969Z,37.50
2023-03-05T08:58:14.945Z,37.80
2023-03-05T08:59:14.920Z,39.30
2023-03-05T09:00:14.925Z,41.20
2023-03-05T09:01:14.986Z,40.40
2023-03-05T09:02:14.903Z,43.10
2023-03-05T09:03:15.040Z,41.90
2023-03-05T09:04:14.862Z,36.00
2023-03-05T09:05:14.866Z,37.70
2023-03-05T09:06:14.838Z,36.70
2023-03-05T09:07:14.845Z,38.70
2023-03-05T09:08:14.822Z,40.60
2023-03-05T09:09:14.849Z,40.50
2023-03-05T09:10:14.791Z,38.30
2023-03-05T09:11:14.814Z,38.10
2023-03-05T09:12:14.771Z,38.10
2023-03-05T09:13:14.817Z,38.10
2023-03-05T09:14:14.883Z,39.80
2023-03-05T09:15:14.742Z,35.80
2023-03-05T09:16:14.753Z,40.00
2023-03-05T09:17:14.714Z,38.10
2023-03-05T09:18:14.683Z,38.60
2023-03-05T09:19:14.725Z,40.00
2023-03-05T09:20:14.673Z,37.80
2023-03-05T09:21:14.672Z,39.80
2023-03-05T09:22:14.648Z,39.00
2023-03-05T09:23:14.662Z,38.10
2023-03-05T09:24:14.662Z,40.00
2023-03-05T09:25:14.592Z,40.00
2023-03-05T09:26:14.575Z,37.70
2023-03-05T09:27:14.574Z,38.00
2023-03-05T09:28:14.562Z,40.60
2023-03-05T09:29:14.552Z,38.40
2023-03-05T09:30:14.543Z,38.50
2023-03-05T09:31:14.572Z,39.50
2023-03-05T09:32:14.569Z,35.90
2023-03-05T09:33:14.603Z,38.30
2023-03-05T09:34:14.528Z,41.30
2023-03-05T09:35:14.482Z,39.10
2023-03-05T09:36:14.474Z,38.60
2023-03-05T09:37:14.474Z,39.60
2023-03-05T09:38:14.458Z,36.90
2023-03-05T09:39:14.426Z,35.00
2023-03-05T09:40:14.440Z,39.10
2023-03-05T09:41:14.397Z,37.90
2023-03-05T09:42:14.376Z,36.20
2023-03-05T09:43:14.397Z,37.60
2023-03-05T09:44:14.354Z,37.80
2023-03-05T09:45:14.353Z,38.10
2023-03-05T09:46:14.421Z,38.00
2023-03-05T09:47:14.760Z,36.80
2023-03-05T09:48:14.324Z,40.40
2023-03-05T09:49:14.290Z,44.30
2023-03-05T09:50:14.284Z,39.70
2023-03-05T09:51:14.275Z,42.40
2023-03-05T09:52:14.297Z,37.90
2023-03-05T09:53:14.262Z,43.60
2023-03-05T09:54:14.269Z,40.00
2023-03-05T09:55:14.217Z,38.30
2023-03-05T09:56:14.224Z,35.80
2023-03-05T09:57:14.187Z,38.50
2023-03-05T09:58:14.200Z,41.00
2023-03-05T09:59:14.173Z,39.30
2023-03-05T10:00:14.172Z,40.40
2023-03-05T10:01:14.152Z,38.90
2023-03-05T10:02:14.123Z,37.20
2023-03-05T10:03:14.305Z,41.00
2023-03-05T10:04:14.180Z,50.30
2023-03-05T10:05:14.086Z,37.40
2023-03-05T10:06:14.087Z,45.60
2023-03-05T10:07:14.837Z,39.50
2023-03-05T10:08:14.066Z,38.90
2023-03-05T10:09:14.033Z,43.70
2023-03-05T10:10:14.073Z,88.80
2023-03-05T10:11:14.022Z,42.30
2023-03-05T10:12:14.085Z,37.00
2023-03-05T10:13:14.110Z,37.00
2023-03-05T10:14:14.032Z,38.50
2023-03-05T10:15:14.036Z,38.90
2023-03-05T10:16:13.994Z,42.10
2023-03-05T10:17:13.934Z,41.70
2023-03-05T10:18:13.923Z,42.70
2023-03-05T10:19:13.930Z,41.30
2023-03-05T10:20:13.893Z,39.60
2023-03-05T10:21:13.899Z,37.30
2023-03-05T10:22:13.869Z,42.80
2023-03-05T10:23:13.867Z,39.20
2023-03-05T10:24:13.851Z,37.00
2023-03-05T10:25:13.839Z,39.30
2023-03-05T10:26:13.822Z,40.60
2023-03-05T10:27:13.868Z,43.10
2023-03-05T10:28:13.797Z,40.60
2023-03-05T10:29:13.785Z,43.30
2023-03-05T10:30:13.775Z,40.50
2023-03-05T10:31:13.768Z,40.30
2023-03-05T10:32:13.845Z,39.00
2023-03-05T10:33:13.770Z,42.10
2023-03-05T10:34:13.728Z,41.10
2023-03-05T10:35:13.730Z,37.80
2023-03-05T10:36:13.693Z,42.40
2023-03-05T10:37:13.733Z,40.20
2023-03-05T10:38:13.688Z,43.80
2023-03-05T10:39:13.677Z,43.60
2023-03-05T10:40:13.977Z,41.50
2023-03-05T10:41:13.654Z,41.90
2023-03-05T10:42:13.636Z,36.80
2023-03-05T10:43:13.621Z,38.60
2023-03-05T10:44:13.605Z,37.90
2023-03-05T10:45:14.242Z,40.90
2023-03-05T10:46:13.617Z,39.20
2023-03-05T10:47:13.559Z,39.90
2023-03-05T10:48:13.542Z,38.50
2023-03-05T10:49:13.576Z,40.00
2023-03-05T10:50:13.518Z,40.90
2023-03-05T10:51:13.526Z,40.70
2023-03-05T10:52:13.487Z,37.40
2023-03-05T10:53:13.480Z,41.90
2023-03-05T10:54:13.478Z,37.90
2023-03-05T10:55:13.472Z,37.00
2023-03-05T10:56:13.454Z,36.40
2023-03-05T10:57:13.426Z,40.10
2023-03-05T10:58:13.419Z,39.80
2023-03-05T10:59:13.402Z,40.00
2023-03-05T11:00:13.463Z,37.60
2023-03-05T11:01:13.427Z,39.40
2023-03-05T11:02:13.388Z,38.10
2023-03-05T11:03:13.358Z,39.30
2023-03-05T11:04:13.333Z,40.20
2023-03-05T11:05:13.337Z,37.60
2023-03-05T11:06:13.317Z,38.90
2023-03-05T11:07:13.328Z,38.50
2023-03-05T11:08:13.310Z,36.50
2023-03-05T11:09:13.277Z,37.50
2023-03-05T11:10:13.261Z,35.90
2023-03-05T11:11:13.271Z,38.20
2023-03-05T11:12:13.226Z,36.50
2023-03-05T11:13:13.254Z,35.30
2023-03-05T11:14:13.247Z,36.50
2023-03-05T11:15:13.226Z,37.20
2023-03-05T11:16:13.198Z,36.80
2023-03-05T11:17:13.170Z,38.50
2023-03-05T11:18:13.156Z,39.80
2023-03-05T11:19:13.148Z,36.20
2023-03-05T11:20:13.137Z,39.80
2023-03-05T11:21:13.155Z,38.20
2023-03-05T11:22:13.104Z,37.80
2023-03-05T11:23:13.122Z,40.20
2023-03-05T11:24:13.078Z,41.50
2023-03-05T11:25:13.098Z,35.50
2023-03-05T11:26:13.092Z,35.10
2023-03-05T11:27:13.036Z,36.50
2023-03-05T11:28:15.270Z,41.40
2023-03-05T11:29:13.017Z,37.90
2023-03-05T11:30:12.998Z,40.20
2023-03-05T11:31:13.057Z,35.60
2023-03-05T11:32:12.992Z,35.50
2023-03-05T11:33:12.961Z,36.60
2023-03-05T11:34:12.952Z,37.00
2023-03-05T11:35:12.936Z,38.60
2023-03-05T11:36:12.933Z,35.40
2023-03-05T11:37:12.916Z,39.60
2023-03-05T11:38:12.903Z,34.70
2023-03-05T11:39:12.914Z,35.20
2023-03-05T11:40:12.874Z,35.50
2023-03-05T11:41:12.895Z,37.60
2023-03-05T11:42:12.849Z,36.30
2023-03-05T11:43:12.870Z,38.60
2023-03-05T11:44:13.638Z,35.00
2023-03-05T11:45:12.829Z,37.50
2023-03-05T11:46:12.878Z,40.00
2023-03-05T11:47:12.807Z,36.30
2023-03-05T11:48:12.788Z,37.70
2023-03-05T11:49:12.760Z,36.70
2023-03-05T11:50:12.764Z,37.00
2023-03-05T11:51:12.746Z,38.50
2023-03-05T11:52:12.714Z,37.70
2023-03-05T11:53:12.757Z,34.10
2023-03-05T11:54:12.709Z,35.60
2023-03-05T11:55:12.713Z,33.40
2023-03-05T11:56:12.683Z,35.10
2023-03-05T11:57:12.666Z,34.40
2023-03-05T11:58:12.645Z,35.60
2023-03-05T11:59:12.641Z,30.10
2023-03-05T12:00:12.618Z,30.50
2023-03-05T12:01:12.639Z,33.70
2023-03-05T12:02:12.626Z,34.60
2023-03-05T12:03:12.612Z,34.30
2023-03-05T12:04:12.652Z,35.80
2023-03-05T12:05:12.562Z,35.50
2023-03-05T12:06:12.571Z,33.80
2023-03-05T12:07:12.557Z,34.00
2023-03-05T12:08:12.522Z,34.50
2023-03-05T12:09:12.510Z,33.00
2023-03-05T12:10:12.494Z,32.80
2023-03-05T12:11:12.494Z,34.10
2023-03-05T12:12:12.500Z,31.90
2023-03-05T12:13:12.463Z,33.10
2023-03-05T12:14:12.448Z,33.10
2023-03-05T12:15:12.463Z,33.80
2023-03-05T12:16:12.494Z,34.80
2023-03-05T12:17:12.418Z,30.60
2023-03-05T12:18:12.391Z,31.70
2023-03-05T12:19:12.408Z,32.00
2023-03-05T12:20:12.387Z,30.90
2023-03-05T12:21:12.364Z,28.50
2023-03-05T12:22:12.392Z,28.80
2023-03-05T12:23:12.347Z,28.20
2023-03-05T12:24:12.342Z,32.70
2023-03-05T12:25:12.322Z,29.70
2023-03-05T12:26:12.306Z,32.00
2023-03-05T12:27:12.306Z,29.70
2023-03-05T12:28:12.277Z,30.10
2023-03-05T12:29:12.300Z,33.50
2023-03-05T12:30:12.243Z,25.00
2023-03-05T12:31:12.251Z,27.70
2023-03-05T12:32:12.263Z,28.80
2023-03-05T12:33:12.239Z,28.10
2023-03-05T12:34:12.305Z,24.70
2023-03-05T12:35:12.181Z,26.70
2023-03-05T12:36:12.171Z,28.50
2023-03-05T12:37:12.195Z,24.70
2023-03-05T12:38:26.055Z,24.40
2023-03-05T12:39:12.143Z,26.70
2023-03-05T12:40:12.121Z,24.80
2023-03-05T12:41:12.134Z,23.90
2023-03-05T12:42:12.106Z,23.50
2023-03-05T12:43:12.092Z,26.30
2023-03-05T12:44:12.073Z,25.60
2023-03-05T12:45:12.062Z,23.50
2023-03-05T12:46:12.081Z,23.90
2023-03-05T12:47:12.053Z,22.60
2023-03-05T12:48:12.178Z,23.30
2023-03-05T12:49:12.008Z,25.50
2023-03-05T12:50:12.011Z,27.30
2023-03-05T12:51:11.981Z,27.10
2023-03-05T12:52:11.978Z,25.20